バンギ・ムポコ国際空港の過去48時間の天気

バンギ・ムポコ国際空港 (Bangui)

現在時刻: 8/4 11:40 WAT (8/4 10:40 UTC) 以下の時間は現地時間です。

過去48時間のMETAR気象情報
時間 風向 風速(m/s) 視程 気温(℃) 湿度(%) 気圧(hPa) 天気現象
4 11:00 南西 2 10km以上 27 74 1015
4 10:00 西南西 2 10km以上 23 89 1016
4 09:00 西 2 6000m 21 94 1016
4 08:00 不定 1 3000m 21 94 1015 もや
4 07:00 不定 1 4000m 21 94 1014 もや
4 06:00 静穏 0 6000m 21 94 1014
4 05:00 静穏 0 6000m 21 94 1014
4 04:00 静穏 0 6000m 21 100 1014
4 03:00 静穏 0 - 21 94 1014
4 02:00 静穏 0 8000m 21 94 1014
4 01:00 静穏 0 10km以上 21 94 1014
4 00:00 静穏 0 10km以上 21 100 1014
3 23:00 静穏 0 8000m 21 100 1015
3 22:00 静穏 0 8000m 21 100 1014
3 21:00 静穏 0 8000m 21 100 1014
3 20:00 静穏 0 8000m 21 100 1013 弱い雨
3 19:00 静穏 0 8000m 21 100 1012 弱い雨
3 18:00 北西 2 8000m 22 94 1013 弱い雨
3 17:00 東南東 2 8000m 22 94 1013 弱い雨
3 16:00 不定 1 4000m 24 89 1014
3 15:00 西南西 3 4000m 24 89 1014
3 14:00 3 10km以上 24 89 1014 弱い雨
3 13:00 不定 2 8000m 23 94 1014 弱い雨
3 12:00 不定 2 7000m 23 94 1015 弱い雨
3 11:00 不定 2 7000m 23 94 1016 弱い雷雨
3 10:00 不定 2 6000m 23 94 1016 弱い雷雨
3 09:00 不定 1 6000m 22 94 1016 弱い雷雨
3 08:00 南南東 3 4000m 23 94 1016 雷雨
3 07:00 不定 1 6000m 22 94 1014
3 06:00 静穏 0 6000m 22 94 1013 弱い雷雨
3 05:00 静穏 0 6000m 22 94 1013
3 04:00 不定 2 6000m 22 94 1012 弱い雷雨
3 03:00 不定 1 10km以上 22 94 1012
3 02:00 静穏 0 10km以上 22 94 1012
3 01:00 不定 2 10km以上 22 94 1013
3 00:00 静穏 0 10km以上 22 94 1013
2 23:00 不定 2 10km以上 22 94 1013
2 22:00 不定 2 10km以上 22 94 1014
2 21:00 静穏 0 10km以上 23 89 1013
FEFF 041000Z 23003KT 9999 BKN016 27/22 Q1015 NOSIG
FEFF 040900Z 25003KT 9999 BKN010 23/21 Q1016 BECMG BKN016
FEFF 040800Z 26003KT 6000 BKN004 21/20 Q1016 BECMG BKN007
FEFF 040700Z VRB02KT 3000 BR SCT003 21/20 Q1015 BECMG 6000 BKN004
FEFF 040600Z VRB02KT 4000 BR SCT003 21/20 Q1014 TEMPO 2500 BKN004
FEFF 040500Z 00000KT 6000 FEW007 21/20 Q1014 TEMPO 4000 BR BKN004
FEFF 040400Z 00000KT 6000 FEW007 21/20 Q1014 TEMPO 4000 BR BKN004
FEFF 040300Z 00000KT 6000 FEW007 21/21 Q1014 NOSIG
FEFF 040200Z AUTO 00000KT 21/20 Q1014
FEFF 040100Z 00000KT 8000 FEW007 21/20 Q1014 NOSIG
FEFF 040000Z 00000KT CAVOK 21/20 Q1014 NOSIG
FEFF 032300Z 00000KT CAVOK 21/21 Q1014 NOSIG
FEFF 032200Z 00000KT 8000 SCT010 21/21 Q1015 BECMG BKN010
FEFF 032100Z 00000KT 8000 FEW010 21/21 Q1014 NOSIG
FEFF 032000Z 00000KT 8000 SCT010 21/21 Q1014 NOSIG
FEFF 031900Z 00000KT 8000 -RA BKN010 21/21 Q1013 BECMG SCT010
FEFF 031800Z 00000KT 8000 -RA BKN010 FEW033CB 21/21 Q1012 BECMG SCT010
FEFF 031700Z 32004KT 8000 -RA SCT010 FEW033CB 22/21 Q1013 NOSIG
FEFF 031600Z 12004KT 8000 -RA FEW010 FEW033CB 22/21 Q1013 NOSIG
FEFF 031500Z VRB02KT 4000 RA BKN010 FEW033CB 24/22 Q1014 TEMPO 6000 -TSRA
FEFF 031400Z 24006KT 4000 RA BKN010 FEW033CB 24/22 Q1014 TEMPO 6000 -TSRA
FEFF 031300Z 18006KT 9999 -RA BKN010 FEW033CB 24/22 Q1014 TEMPO TS
FEFF 031200Z VRB04KT 8000 -RA BKN010 FEW033CB 23/22 Q1014 TEMPO TS
FEFF 031100Z VRB03KT 7000 -RA BKN010 23/22 Q1015 NOSIG
FEFF 031000Z VRB03KT 7000 -TSRA BKN010 FEW033CB 23/22 Q1016 BECMG NSW
FEFF 030900Z VRB03KT 6000 -TSRA BKN010 FEW033CB 23/22 Q1016 TEMPO 4000 TSRA
FEFF 030800Z VRB02KT 6000 -TSRA BKN010 FEW033CB 22/21 Q1016 RERA TEMPO 4000 TSRA
FEFF 030700Z 16006KT 4000 TSRA BKN010 FEW033CB 23/22 Q1016 TEMPO 18010G20KT 2500
FEFF 030600Z VRB02KT 6000 TS SCT010 FEW033CB 22/21 Q1014 RERA BECMG NSW
FEFF 030500Z 00000KT 6000 -TSRA SCT010 FEW033CB 22/21 Q1013 NOSIG
FEFF 030400Z 00000KT 6000 TS SCT010 FEW033CB 22/21 Q1013 RERA BECMG NSW
FEFF 030300Z VRB03KT 6000 -TSRA SCT010 FEW033CB 22/21 Q1012 TEMPO 14015G25KT 4000 +TSRA
FEFF 030200Z VRB02KT 9999 TS SCT010 FEW033CB 22/21 Q1012 NOSIG
FEFF 030100Z 00000KT 9999 SCT010 22/21 Q1012 NOSIG
FEFF 030000Z VRB03KT 9999 SCT010 22/21 Q1013 NOSIG
FEFF 022300Z 00000KT CAVOK 22/21 Q1013 NOSIG
FEFF 022200Z VRB03KT CAVOK 22/21 Q1013 NOSIG
FEFF 022100Z VRB03KT CAVOK 22/21 Q1014 NOSIG
FEFF 022000Z 00000KT 9999 FEW010 23/21 Q1013 NOSIG